Cromwell, Kentucky
Current Conditions -  °F | °C
As of 8:53 PM on Monday 22 Dec 2014 (Local Time) from KBWG Reporting Station
Light Rain Light Rain  
Wind Chill: 54°   Ceiling: 1700
Heat Index: 54°   Visibility: 10mi
Dew Point: 49°   Wind: 13mph
Humidity: 83%   Direction: 170°S
Pressure: 29.69"   Gusts: NA
Location:  37.34°N, 86.79°W
Report Text: KBWG 230253Z AUTO 17011KT 10SM -RA OVC017 12/09 A2969 RMK AO2 LTG DSNT N AND NW RAB36 SLP054 P0000 60000 T01220094 56011
Loading
Personal Weather Stations






























Interactive Weather Map New forecast layout! Learn more

10-Day Weather Forecast

Advertisements
Track Severe Weather on mobile